createdAt,value
2018-07-10T00:02:32.496Z,2.80
2018-07-10T00:07:16.861Z,2.97
2018-07-10T00:14:11.597Z,2.77
2018-07-10T00:16:40.897Z,2.83
2018-07-10T00:19:10.071Z,2.77
2018-07-10T00:21:39.369Z,3.00
2018-07-10T00:24:08.578Z,2.80
2018-07-10T00:26:37.665Z,2.67
2018-07-10T00:29:06.891Z,3.10
2018-07-10T00:31:35.956Z,3.00
2018-07-10T00:34:05.152Z,3.00
2018-07-10T00:36:34.256Z,2.83
2018-07-10T00:39:08.667Z,3.00
2018-07-10T00:41:39.337Z,2.70
2018-07-10T00:44:09.420Z,2.90
2018-07-10T00:46:40.153Z,2.70
2018-07-10T00:49:09.393Z,2.70
2018-07-10T00:51:39.990Z,2.70
2018-07-10T00:54:09.719Z,3.10
2018-07-10T00:56:39.515Z,3.13
2018-07-10T00:59:08.861Z,3.40
2018-07-10T01:01:38.474Z,3.00
2018-07-10T01:04:08.232Z,2.80
2018-07-10T01:06:37.787Z,2.93
2018-07-10T01:09:07.781Z,2.90
2018-07-10T01:11:37.972Z,2.97
2018-07-10T01:14:07.174Z,2.93
2018-07-10T01:16:38.860Z,3.00
2018-07-10T01:19:13.869Z,3.20
2018-07-10T01:21:43.825Z,2.90
2018-07-10T01:24:14.716Z,3.10
2018-07-10T01:26:43.914Z,3.07
2018-07-10T01:29:51.890Z,3.33
2018-07-10T01:32:21.220Z,3.20
2018-07-10T01:34:50.422Z,2.90
2018-07-10T01:37:19.829Z,3.07
2018-07-10T01:39:49.046Z,3.20
2018-07-10T01:42:18.323Z,3.50
2018-07-10T01:44:47.530Z,3.30
2018-07-10T01:47:16.762Z,3.50
2018-07-10T01:49:46.018Z,3.50
2018-07-10T01:52:15.325Z,3.03
2018-07-10T01:54:44.625Z,3.40
2018-07-10T01:57:13.921Z,3.50
2018-07-10T01:59:43.126Z,3.67
2018-07-10T02:02:12.455Z,3.60
2018-07-10T02:04:41.823Z,3.33
2018-07-10T02:07:11.025Z,3.70
2018-07-10T02:09:40.161Z,3.73
2018-07-10T02:12:09.371Z,3.97
2018-07-10T02:14:39.069Z,3.30
2018-07-10T02:17:08.328Z,3.50
2018-07-10T02:19:37.753Z,4.23
2018-07-10T02:22:07.037Z,4.00
2018-07-10T02:24:37.243Z,4.43
2018-07-10T02:27:06.454Z,4.60
2018-07-10T02:29:36.222Z,4.53
2018-07-10T02:32:05.471Z,4.40
2018-07-10T02:34:34.682Z,4.50
2018-07-10T02:37:04.157Z,4.60
2018-07-10T02:39:33.281Z,4.50
2018-07-10T02:42:02.522Z,4.17
2018-07-10T02:44:32.408Z,4.13
2018-07-10T02:47:01.790Z,4.30
2018-07-10T02:49:31.004Z,4.50
2018-07-10T02:52:03.447Z,4.50
2018-07-10T02:54:48.168Z,5.00
2018-07-10T02:57:17.456Z,4.40
2018-07-10T02:59:47.043Z,4.17
2018-07-10T03:02:21.428Z,5.80
2018-07-10T03:04:59.618Z,4.83
2018-07-10T03:07:29.658Z,4.80
2018-07-10T03:09:59.881Z,5.03
2018-07-10T03:12:32.268Z,5.50
2018-07-10T03:15:04.217Z,4.20
2018-07-10T03:17:33.415Z,4.60
2018-07-10T03:20:04.300Z,4.30
2018-07-10T03:22:33.499Z,4.00
2018-07-10T03:25:02.965Z,4.23
2018-07-10T03:27:33.118Z,5.00
2018-07-10T03:30:03.040Z,4.97
2018-07-10T03:32:32.517Z,5.57
2018-07-10T03:35:01.928Z,4.57
2018-07-10T03:37:31.146Z,5.80
2018-07-10T03:40:00.298Z,5.10
2018-07-10T03:42:29.437Z,5.30
2018-07-10T03:44:58.764Z,5.00
2018-07-10T03:47:28.168Z,4.73
2018-07-10T03:49:57.317Z,5.70
2018-07-10T03:52:31.605Z,5.30
2018-07-10T03:55:02.946Z,4.70
2018-07-10T03:57:32.086Z,5.90
2018-07-10T04:00:06.307Z,5.27
2018-07-10T04:02:35.530Z,5.40
2018-07-10T04:05:04.698Z,5.67
2018-07-10T04:07:34.356Z,5.20
2018-07-10T04:10:03.685Z,5.60
2018-07-10T04:12:34.623Z,5.50
2018-07-10T04:15:05.222Z,5.70
2018-07-10T04:17:46.935Z,5.83
2018-07-10T04:20:17.954Z,6.07
2018-07-10T04:22:52.836Z,5.13
2018-07-10T04:25:28.894Z,5.00
2018-07-10T04:28:14.390Z,5.93
2018-07-10T04:30:53.906Z,5.97
2018-07-10T04:33:23.292Z,5.13
2018-07-10T04:35:52.655Z,5.73
2018-07-10T04:38:27.015Z,5.80
2018-07-10T04:41:01.432Z,6.70
2018-07-10T04:43:31.556Z,7.03
2018-07-10T04:46:00.822Z,6.70
2018-07-10T04:48:31.602Z,5.50
2018-07-10T04:51:12.105Z,7.00
2018-07-10T04:53:42.822Z,5.80
2018-07-10T04:56:13.410Z,6.30
2018-07-10T04:58:45.537Z,6.60
2018-07-10T05:01:15.095Z,7.03
2018-07-10T05:03:44.798Z,7.30
2018-07-10T05:06:13.905Z,7.50
2018-07-10T05:08:44.020Z,7.20
2018-07-10T05:11:13.197Z,7.07
2018-07-10T05:13:42.415Z,6.67
2018-07-10T05:16:11.529Z,6.40
2018-07-10T05:18:40.637Z,7.87
2018-07-10T05:21:12.790Z,7.07
2018-07-10T05:23:42.090Z,7.10
2018-07-10T05:26:14.549Z,6.83
2018-07-10T05:28:45.080Z,6.10
2018-07-10T05:31:14.283Z,6.80
2018-07-10T05:33:46.980Z,7.27
2018-07-10T05:36:17.103Z,7.43
2018-07-10T05:38:47.846Z,7.10
2018-07-10T05:41:19.086Z,6.80
2018-07-10T05:43:51.896Z,7.30
2018-07-10T05:46:22.998Z,8.50
2018-07-10T05:49:07.516Z,6.73
2018-07-10T05:51:44.571Z,5.90
2018-07-10T05:54:14.245Z,5.80
2018-07-10T05:56:43.307Z,5.70
2018-07-10T05:59:12.605Z,4.27
2018-07-10T06:01:42.754Z,5.20
2018-07-10T06:04:17.081Z,4.20
2018-07-10T06:06:47.062Z,4.03
2018-07-10T06:09:17.513Z,4.17
2018-07-10T06:11:46.819Z,4.67
2018-07-10T06:14:15.949Z,4.30
2018-07-10T06:16:45.444Z,4.50
2018-07-10T06:19:14.796Z,4.00
2018-07-10T06:21:47.825Z,4.10
2018-07-10T06:24:28.038Z,4.50
2018-07-10T06:27:02.088Z,4.37
2018-07-10T06:29:49.166Z,5.10
2018-07-10T06:32:20.133Z,4.80
2018-07-10T06:34:50.844Z,5.23
2018-07-10T06:37:29.950Z,4.87
2018-07-10T06:40:00.321Z,5.40
2018-07-10T06:42:33.500Z,4.70
2018-07-10T06:45:04.221Z,4.63
2018-07-10T06:47:40.584Z,5.03
2018-07-10T06:50:09.760Z,5.20
2018-07-10T06:52:42.634Z,5.23
2018-07-10T06:55:15.146Z,5.90
2018-07-10T06:57:53.565Z,4.10
2018-07-10T07:00:22.779Z,4.37
2018-07-10T07:02:52.017Z,4.90
2018-07-10T07:05:21.451Z,5.10
2018-07-10T07:07:50.577Z,5.20
2018-07-10T07:10:19.686Z,4.77
2018-07-10T07:12:49.257Z,5.23
2018-07-10T07:15:20.305Z,4.43
2018-07-10T07:17:51.870Z,5.40
2018-07-10T07:20:21.925Z,5.07
2018-07-10T07:22:51.344Z,4.80
2018-07-10T07:25:20.476Z,6.47
2018-07-10T07:27:49.548Z,5.50
2018-07-10T07:30:18.745Z,4.50
2018-07-10T07:32:48.639Z,5.10
2018-07-10T07:35:17.846Z,4.70
2018-07-10T07:37:47.174Z,4.53
2018-07-10T07:40:16.460Z,4.43
2018-07-10T07:42:45.499Z,4.73
2018-07-10T07:45:14.660Z,4.90
2018-07-10T07:47:44.145Z,4.47
2018-07-10T07:50:13.292Z,4.50
2018-07-10T07:52:42.376Z,8.57
2018-07-10T07:55:12.737Z,4.50
2018-07-10T07:57:41.830Z,4.10
2018-07-10T08:00:10.960Z,4.13
2018-07-10T08:02:40.421Z,3.97
2018-07-10T08:05:09.488Z,3.30
2018-07-10T08:07:38.638Z,3.67
2018-07-10T08:10:07.822Z,3.40
2018-07-10T08:12:36.963Z,4.00
2018-07-10T08:15:06.031Z,3.70
2018-07-10T08:17:36.953Z,3.27
2018-07-10T08:20:06.916Z,3.83
2018-07-10T08:22:36.285Z,3.57
2018-07-10T08:25:05.953Z,3.30
2018-07-10T08:27:36.783Z,3.03
2018-07-10T08:30:06.119Z,3.40
2018-07-10T08:32:36.749Z,3.20
2018-07-10T08:35:06.014Z,3.53
2018-07-10T08:37:35.172Z,4.20
2018-07-10T08:40:04.221Z,3.50
2018-07-10T08:42:33.343Z,3.03
2018-07-10T08:45:03.476Z,3.30
2018-07-10T08:47:32.734Z,4.40
2018-07-10T08:50:01.798Z,3.10
2018-07-10T08:52:30.925Z,3.30
2018-07-10T08:55:00.022Z,3.17
2018-07-10T08:57:29.071Z,3.87
2018-07-10T08:59:58.320Z,3.40
2018-07-10T09:02:28.091Z,3.50
2018-07-10T09:04:57.173Z,3.53
2018-07-10T09:07:26.228Z,3.10
2018-07-10T09:09:55.311Z,4.33
2018-07-10T09:12:24.482Z,3.10
2018-07-10T09:14:53.591Z,3.50
2018-07-10T09:17:22.664Z,3.60
2018-07-10T09:19:51.870Z,3.40
2018-07-10T09:22:20.996Z,3.80
2018-07-10T09:24:53.850Z,3.40
2018-07-10T09:27:23.729Z,2.90
2018-07-10T09:29:52.817Z,3.07
2018-07-10T09:32:27.337Z,2.90
2018-07-10T09:34:57.716Z,3.30
2018-07-10T09:37:33.928Z,2.93
2018-07-10T09:40:08.238Z,2.80
2018-07-10T09:42:42.410Z,2.70
2018-07-10T09:45:11.563Z,2.63
2018-07-10T09:47:40.631Z,2.70
2018-07-10T09:50:09.701Z,2.83
2018-07-10T09:52:38.879Z,3.00
2018-07-10T09:55:08.095Z,2.90
2018-07-10T09:57:38.605Z,2.87
2018-07-10T10:00:07.736Z,2.33
2018-07-10T10:02:37.273Z,3.00
2018-07-10T10:05:07.427Z,2.73
2018-07-10T10:07:36.668Z,2.47
2018-07-10T10:10:05.840Z,2.57
2018-07-10T10:12:34.926Z,3.00
2018-07-10T10:15:04.544Z,2.97
2018-07-10T10:17:33.662Z,3.17
2018-07-10T10:20:02.997Z,2.60
2018-07-10T10:22:33.058Z,2.80
2018-07-10T10:25:03.644Z,2.90
2018-07-10T10:27:32.814Z,3.13
2018-07-10T10:30:02.350Z,2.87
2018-07-10T10:32:31.759Z,2.90
2018-07-10T10:35:00.867Z,2.47
2018-07-10T10:37:29.983Z,2.47
2018-07-10T10:40:00.913Z,2.60
2018-07-10T10:42:30.063Z,2.87
2018-07-10T10:45:01.136Z,2.33
2018-07-10T10:47:31.448Z,2.20
2018-07-10T10:50:01.228Z,2.33
2018-07-10T10:52:30.835Z,2.60
2018-07-10T10:55:00.182Z,2.70
2018-07-10T10:57:33.285Z,3.20
2018-07-10T11:00:02.442Z,2.60
2018-07-10T11:02:31.653Z,3.30
2018-07-10T11:05:01.409Z,2.63
2018-07-10T11:07:31.761Z,3.20
2018-07-10T11:10:00.965Z,2.50
2018-07-10T11:12:30.950Z,2.70
2018-07-10T11:15:00.636Z,2.60
2018-07-10T11:17:33.566Z,3.10
2018-07-10T11:20:10.354Z,2.60
2018-07-10T11:22:45.485Z,2.70
2018-07-10T11:25:14.883Z,3.13
2018-07-10T11:27:52.846Z,2.90
2018-07-10T11:30:22.034Z,2.30
2018-07-10T11:32:51.103Z,2.20
2018-07-10T11:35:20.257Z,2.47
2018-07-10T11:37:49.331Z,3.30
2018-07-10T11:40:18.872Z,2.63
2018-07-10T11:42:47.987Z,2.90
2018-07-10T11:45:17.029Z,2.80
2018-07-10T11:47:46.174Z,2.97
2018-07-10T11:50:15.286Z,2.30
2018-07-10T11:52:44.322Z,2.00
2018-07-10T11:55:13.419Z,2.37
2018-07-10T11:57:42.758Z,3.80
2018-07-10T12:00:11.914Z,2.90
2018-07-10T12:02:45.281Z,2.57
2018-07-10T12:05:16.565Z,2.40
2018-07-10T12:07:49.272Z,2.50
2018-07-10T12:10:22.465Z,2.90
2018-07-10T12:12:52.543Z,2.87
2018-07-10T12:15:21.906Z,2.93
2018-07-10T12:17:56.701Z,2.80
2018-07-10T12:20:37.512Z,3.20
2018-07-10T12:23:08.066Z,2.80
2018-07-10T12:25:43.906Z,3.33
2018-07-10T12:28:14.147Z,2.73
2018-07-10T12:30:43.275Z,2.90
2018-07-10T12:33:12.355Z,3.07
2018-07-10T12:35:41.419Z,2.97
2018-07-10T12:38:10.543Z,2.90
2018-07-10T12:40:39.677Z,4.33
2018-07-10T12:43:08.843Z,3.03
2018-07-10T12:45:38.455Z,3.03
2018-07-10T12:48:07.529Z,3.27
2018-07-10T12:50:37.041Z,2.90
2018-07-10T12:53:06.157Z,3.20
2018-07-10T12:55:36.246Z,3.20
2018-07-10T12:58:05.569Z,2.63
2018-07-10T13:00:37.572Z,3.77
2018-07-10T13:03:08.737Z,2.90
2018-07-10T13:05:44.418Z,2.70
2018-07-10T13:08:13.506Z,2.77
2018-07-10T13:10:42.735Z,2.60
2018-07-10T13:13:11.931Z,2.30
2018-07-10T13:15:41.182Z,3.00
2018-07-10T13:18:10.395Z,2.30
2018-07-10T13:20:39.457Z,3.40
2018-07-10T13:23:08.589Z,3.20
2018-07-10T13:25:37.646Z,2.70
2018-07-10T13:28:07.052Z,2.23
2018-07-10T13:30:36.323Z,2.63
2018-07-10T13:33:05.556Z,2.77
2018-07-10T13:35:35.599Z,2.70
2018-07-10T13:38:04.963Z,2.90
2018-07-10T13:40:35.633Z,2.77
2018-07-10T13:43:04.732Z,2.50
2018-07-10T13:45:33.845Z,2.93
2018-07-10T13:48:03.043Z,2.60
2018-07-10T13:50:33.348Z,2.40
2018-07-10T13:53:03.246Z,2.60
2018-07-10T13:55:33.013Z,2.43
2018-07-10T13:58:20.051Z,2.50
2018-07-10T14:00:57.053Z,2.50
2018-07-10T14:03:26.274Z,2.43
2018-07-10T14:05:55.302Z,2.70
2018-07-10T14:08:24.411Z,3.77
2018-07-10T14:10:53.452Z,2.13
2018-07-10T14:13:22.542Z,2.17
2018-07-10T14:15:53.206Z,2.80
2018-07-10T14:18:23.681Z,2.13
2018-07-10T14:20:54.838Z,2.00
2018-07-10T14:23:23.922Z,2.40
2018-07-10T14:25:53.453Z,2.53
2018-07-10T14:28:22.710Z,3.33
2018-07-10T14:30:51.774Z,2.30
2018-07-10T14:33:21.112Z,2.20
2018-07-10T14:35:50.550Z,2.17
2018-07-10T14:38:25.729Z,2.70
2018-07-10T14:40:55.626Z,2.20
2018-07-10T14:43:28.409Z,2.30
2018-07-10T14:46:02.230Z,2.33
2018-07-10T14:48:37.290Z,2.07
2018-07-10T14:51:06.355Z,2.50
2018-07-10T14:53:35.784Z,2.97
2018-07-10T14:56:05.106Z,2.57
2018-07-10T14:58:35.366Z,2.13
2018-07-10T15:01:05.033Z,3.37
2018-07-10T15:03:34.177Z,2.30
2018-07-10T15:06:03.566Z,2.50
2018-07-10T15:08:32.627Z,2.50
2018-07-10T15:11:01.684Z,2.80
2018-07-10T15:13:41.823Z,2.23
2018-07-10T15:16:11.233Z,3.47
2018-07-10T15:18:42.322Z,3.37
2018-07-10T15:21:11.559Z,2.50
2018-07-10T15:23:40.867Z,2.50
2018-07-10T15:26:09.983Z,2.20
2018-07-10T15:28:39.157Z,3.00
2018-07-10T15:31:11.932Z,3.03
2018-07-10T15:33:41.427Z,3.37
2018-07-10T15:36:11.675Z,3.77
2018-07-10T15:38:40.899Z,3.83
2018-07-10T15:41:10.252Z,2.90
2018-07-10T15:43:40.153Z,2.40
2018-07-10T15:46:09.258Z,2.87
2018-07-10T15:48:38.437Z,2.63
2018-07-10T15:51:07.767Z,2.73
2018-07-10T15:53:36.959Z,2.60
2018-07-10T15:56:06.366Z,3.23
2018-07-10T15:58:36.902Z,2.80
2018-07-10T16:01:06.635Z,3.30
2018-07-10T16:03:36.209Z,3.30
2018-07-10T16:06:05.921Z,3.37
2018-07-10T16:08:38.364Z,2.77
2018-07-10T16:11:07.505Z,2.37
2018-07-10T16:13:40.188Z,1.80
2018-07-10T16:16:10.923Z,2.87
2018-07-10T16:18:44.197Z,2.90
2018-07-10T16:21:14.087Z,2.40
2018-07-10T16:23:43.752Z,2.03
2018-07-10T16:26:20.013Z,1.93
2018-07-10T16:28:49.094Z,2.33
2018-07-10T16:31:19.551Z,1.93
2018-07-10T16:33:48.638Z,2.00
2018-07-10T16:36:18.778Z,4.73
2018-07-10T16:38:47.963Z,1.83
2018-07-10T16:41:22.538Z,1.37
2018-07-10T16:43:52.574Z,2.60
2018-07-10T16:46:27.102Z,2.03
2018-07-10T16:49:06.486Z,3.13
2018-07-10T16:51:42.246Z,2.47
2018-07-10T16:54:11.717Z,1.80
2018-07-10T16:56:40.827Z,1.43
2018-07-10T16:59:10.106Z,1.47
2018-07-10T17:01:39.437Z,1.73
2018-07-10T17:04:08.715Z,1.50
2018-07-10T17:06:38.450Z,1.50
2018-07-10T17:09:07.509Z,1.60
2018-07-10T17:11:36.647Z,1.60
2018-07-10T17:14:05.753Z,1.87
2018-07-10T17:16:34.900Z,1.80
2018-07-10T17:19:04.155Z,1.50
2018-07-10T17:21:33.225Z,2.00
2018-07-10T17:24:03.770Z,1.73
2018-07-10T17:26:33.120Z,1.67
2018-07-10T17:29:07.620Z,1.73
2018-07-10T17:31:36.748Z,1.37
2018-07-10T17:34:05.987Z,1.80
2018-07-10T17:36:35.114Z,1.83
2018-07-10T17:39:05.668Z,1.67
2018-07-10T17:41:36.127Z,2.27
2018-07-10T17:44:07.864Z,2.00
2018-07-10T17:46:37.236Z,2.23
2018-07-10T17:49:06.450Z,2.00
2018-07-10T17:51:35.695Z,1.80
2018-07-10T17:54:05.273Z,1.80
2018-07-10T17:56:34.400Z,1.70
2018-07-10T17:59:06.082Z,2.33
2018-07-10T18:01:35.575Z,1.93
2018-07-10T18:04:04.914Z,2.60
2018-07-10T18:06:34.290Z,1.80
2018-07-10T18:09:04.661Z,2.20
2018-07-10T18:11:33.821Z,2.10
2018-07-10T18:14:02.906Z,2.00
2018-07-10T18:16:33.978Z,3.43
2018-07-10T18:19:03.984Z,2.20
2018-07-10T18:21:34.413Z,1.93
2018-07-10T18:24:03.827Z,1.80
2018-07-10T18:26:32.883Z,1.80
2018-07-10T18:29:01.975Z,1.87
2018-07-10T18:31:31.042Z,1.70
2018-07-10T18:34:00.165Z,2.00
2018-07-10T18:36:29.343Z,2.03
2018-07-10T18:38:58.534Z,1.70
2018-07-10T18:41:27.588Z,1.87
2018-07-10T18:43:56.751Z,2.37
2018-07-10T18:46:25.811Z,1.93
2018-07-10T18:48:54.922Z,1.73
2018-07-10T18:51:24.273Z,2.00
2018-07-10T18:53:53.376Z,2.33
2018-07-10T18:56:23.076Z,2.00
2018-07-10T18:59:01.360Z,2.77
2018-07-10T19:01:36.047Z,2.10
2018-07-10T19:04:05.267Z,2.20
2018-07-10T19:06:34.337Z,2.30
2018-07-10T19:09:04.387Z,1.90
2018-07-10T19:11:33.700Z,2.20
2018-07-10T19:14:03.101Z,2.20
2018-07-10T19:16:32.598Z,2.23
2018-07-10T19:19:04.210Z,2.83
2018-07-10T19:21:38.802Z,2.27
2018-07-10T19:24:15.537Z,2.50
2018-07-10T19:26:45.393Z,2.40
2018-07-10T19:29:21.550Z,2.77
2018-07-10T19:31:51.084Z,2.80
2018-07-10T19:34:20.450Z,2.23
2018-07-10T19:36:49.549Z,2.37
2018-07-10T19:39:18.619Z,2.30
2018-07-10T19:41:47.770Z,2.43
2018-07-10T19:44:16.952Z,2.90
2018-07-10T19:46:46.392Z,2.67
2018-07-10T19:49:17.454Z,2.10
2018-07-10T19:51:49.398Z,2.90
2018-07-10T19:54:18.486Z,3.03
2018-07-10T19:56:47.990Z,2.90
2018-07-10T19:59:17.728Z,2.83
2018-07-10T20:01:51.560Z,2.50
2018-07-10T20:04:32.897Z,3.13
2018-07-10T20:08:12.486Z,2.67
2018-07-10T20:10:47.357Z,3.10
2018-07-10T20:13:29.831Z,2.77
2018-07-10T20:17:06.668Z,3.30
2018-07-10T20:19:43.534Z,3.17
2018-07-10T20:22:17.902Z,3.50
2018-07-10T20:27:01.966Z,3.13
2018-07-10T20:30:16.086Z,3.47
2018-07-10T20:36:01.331Z,3.60
2018-07-10T20:38:30.423Z,3.17
2018-07-10T20:41:02.400Z,3.70
2018-07-10T20:43:34.161Z,3.60
2018-07-10T20:46:03.411Z,3.50
2018-07-10T20:48:54.161Z,3.80
2018-07-10T20:51:28.462Z,3.90
2018-07-10T20:54:06.590Z,3.93
2018-07-10T20:56:44.416Z,3.90
2018-07-10T20:59:19.664Z,3.83
2018-07-10T21:01:52.335Z,4.00
2018-07-10T21:04:32.023Z,3.63
2018-07-10T21:07:04.024Z,3.43
2018-07-10T21:09:56.661Z,4.10
2018-07-10T21:12:34.145Z,4.30
2018-07-10T21:15:06.654Z,3.97
2018-07-10T21:18:20.953Z,4.63
2018-07-10T21:20:58.990Z,4.00
2018-07-10T21:23:36.355Z,4.27
2018-07-10T21:26:11.970Z,3.93
2018-07-10T21:28:46.094Z,4.33
2018-07-10T21:31:51.862Z,4.50
2018-07-10T21:34:28.715Z,4.13
2018-07-10T21:37:08.294Z,4.30
2018-07-10T21:39:51.511Z,4.23
2018-07-10T21:42:39.882Z,3.70
2018-07-10T21:45:22.462Z,4.20
2018-07-10T21:50:09.298Z,4.43
2018-07-10T21:52:38.504Z,3.90
2018-07-10T21:55:07.618Z,4.47
2018-07-10T21:57:39.849Z,3.50
2018-07-10T22:00:08.954Z,4.10
2018-07-10T22:02:38.041Z,4.60
2018-07-10T22:05:07.449Z,4.30
2018-07-10T22:07:36.550Z,4.30
2018-07-10T22:10:06.987Z,5.00
2018-07-10T22:12:43.110Z,4.87
2018-07-10T22:15:12.645Z,4.70
2018-07-10T22:17:43.145Z,4.30
2018-07-10T22:20:12.281Z,5.03
2018-07-10T22:22:41.334Z,4.83
2018-07-10T22:25:10.529Z,4.90
2018-07-10T22:27:41.531Z,5.00
2018-07-10T22:30:20.822Z,5.20
2018-07-10T22:32:56.057Z,5.20
2018-07-10T22:35:25.213Z,5.03
2018-07-10T22:37:55.695Z,5.63
2018-07-10T22:40:24.770Z,5.20
2018-07-10T22:42:53.922Z,5.20
2018-07-10T22:45:23.164Z,5.13
2018-07-10T22:47:52.295Z,5.00
2018-07-10T22:50:23.324Z,5.50
2018-07-10T22:52:54.693Z,5.40
2018-07-10T22:55:28.924Z,5.30
2018-07-10T22:58:03.204Z,5.50
2018-07-10T23:00:35.035Z,5.13
2018-07-10T23:03:25.214Z,5.57
2018-07-10T23:05:54.993Z,5.50
2018-07-10T23:08:32.234Z,5.50
2018-07-10T23:11:03.094Z,5.40
2018-07-10T23:13:33.817Z,5.60
2018-07-10T23:16:02.862Z,5.83
2018-07-10T23:18:31.915Z,5.57
2018-07-10T23:21:01.003Z,5.77
2018-07-10T23:23:30.201Z,6.13
2018-07-10T23:25:59.968Z,5.97
2018-07-10T23:28:30.106Z,6.40
2018-07-10T23:30:59.173Z,6.47
2018-07-10T23:33:29.078Z,5.67
2018-07-10T23:36:01.111Z,6.47
2018-07-10T23:39:44.977Z,6.00
2018-07-10T23:42:47.948Z,6.17
2018-07-10T23:45:21.971Z,6.30
2018-07-10T23:47:51.568Z,6.20
2018-07-10T23:50:28.706Z,6.30
2018-07-10T23:53:22.420Z,6.20
2018-07-10T23:55:51.757Z,6.70
2018-07-10T23:58:20.831Z,5.60
